sensor_id;sensor_type;location;lat;lon;timestamp;P1;durP1;ratioP1;P2;durP2;ratioP2
4057;SDS011;2044;48.692;9.020;2023-08-31T00:01:55;5.57;;;2.47;;
4057;SDS011;2044;48.692;9.020;2023-08-31T00:04:21;4.03;;;2.30;;
4057;SDS011;2044;48.692;9.020;2023-08-31T00:06:49;3.90;;;2.33;;
4057;SDS011;2044;48.692;9.020;2023-08-31T00:09:16;3.80;;;2.40;;
4057;SDS011;2044;48.692;9.020;2023-08-31T00:11:44;2.80;;;2.37;;
4057;SDS011;2044;48.692;9.020;2023-08-31T00:14:10;5.90;;;2.80;;
4057;SDS011;2044;48.692;9.020;2023-08-31T00:16:37;2.20;;;2.00;;
4057;SDS011;2044;48.692;9.020;2023-08-31T00:19:04;3.17;;;2.27;;
4057;SDS011;2044;48.692;9.020;2023-08-31T00:21:30;3.47;;;2.10;;
4057;SDS011;2044;48.692;9.020;2023-08-31T00:23:59;3.40;;;2.33;;
4057;SDS011;2044;48.692;9.020;2023-08-31T00:26:26;3.17;;;2.00;;
4057;SDS011;2044;48.692;9.020;2023-08-31T00:28:54;2.53;;;2.00;;
4057;SDS011;2044;48.692;9.020;2023-08-31T00:31:21;3.87;;;2.13;;
4057;SDS011;2044;48.692;9.020;2023-08-31T00:33:47;3.37;;;2.40;;
4057;SDS011;2044;48.692;9.020;2023-08-31T00:36:15;4.87;;;2.40;;
4057;SDS011;2044;48.692;9.020;2023-08-31T00:38:43;5.70;;;2.60;;
4057;SDS011;2044;48.692;9.020;2023-08-31T00:41:11;5.50;;;3.10;;
4057;SDS011;2044;48.692;9.020;2023-08-31T00:43:38;3.30;;;2.30;;
4057;SDS011;2044;48.692;9.020;2023-08-31T00:46:05;3.73;;;2.87;;
4057;SDS011;2044;48.692;9.020;2023-08-31T00:48:32;5.77;;;2.70;;
4057;SDS011;2044;48.692;9.020;2023-08-31T00:50:59;4.57;;;2.60;;
4057;SDS011;2044;48.692;9.020;2023-08-31T00:53:27;3.00;;;2.50;;
4057;SDS011;2044;48.692;9.020;2023-08-31T00:55:55;4.93;;;2.83;;
4057;SDS011;2044;48.692;9.020;2023-08-31T00:58:23;6.30;;;3.30;;
4057;SDS011;2044;48.692;9.020;2023-08-31T01:00:54;5.37;;;3.23;;
4057;SDS011;2044;48.692;9.020;2023-08-31T01:03:28;5.00;;;3.30;;
4057;SDS011;2044;48.692;9.020;2023-08-31T01:06:06;5.43;;;3.60;;
4057;SDS011;2044;48.692;9.020;2023-08-31T01:08:39;4.40;;;3.00;;
4057;SDS011;2044;48.692;9.020;2023-08-31T01:11:17;5.17;;;3.23;;
4057;SDS011;2044;48.692;9.020;2023-08-31T01:13:53;3.63;;;2.67;;
4057;SDS011;2044;48.692;9.020;2023-08-31T01:16:28;4.00;;;2.87;;
4057;SDS011;2044;48.692;9.020;2023-08-31T01:19:00;4.43;;;3.00;;
4057;SDS011;2044;48.692;9.020;2023-08-31T01:21:30;4.10;;;2.70;;
4057;SDS011;2044;48.692;9.020;2023-08-31T01:24:02;6.90;;;3.40;;
4057;SDS011;2044;48.692;9.020;2023-08-31T01:26:30;6.43;;;2.90;;
4057;SDS011;2044;48.692;9.020;2023-08-31T01:28:57;3.83;;;2.50;;
4057;SDS011;2044;48.692;9.020;2023-08-31T01:31:24;3.10;;;2.33;;
4057;SDS011;2044;48.692;9.020;2023-08-31T01:33:51;3.60;;;2.50;;
4057;SDS011;2044;48.692;9.020;2023-08-31T01:36:20;7.20;;;3.03;;
4057;SDS011;2044;48.692;9.020;2023-08-31T01:38:50;3.97;;;3.00;;
4057;SDS011;2044;48.692;9.020;2023-08-31T01:41:26;3.80;;;2.77;;
4057;SDS011;2044;48.692;9.020;2023-08-31T01:43:56;5.00;;;3.27;;
4057;SDS011;2044;48.692;9.020;2023-08-31T01:46:24;4.37;;;2.47;;
4057;SDS011;2044;48.692;9.020;2023-08-31T01:48:51;2.97;;;2.57;;
4057;SDS011;2044;48.692;9.020;2023-08-31T01:51:18;4.23;;;2.73;;
4057;SDS011;2044;48.692;9.020;2023-08-31T01:53:45;4.67;;;3.00;;
4057;SDS011;2044;48.692;9.020;2023-08-31T01:56:12;3.73;;;2.50;;
4057;SDS011;2044;48.692;9.020;2023-08-31T01:58:41;5.93;;;3.30;;
4057;SDS011;2044;48.692;9.020;2023-08-31T02:01:07;3.73;;;2.90;;
4057;SDS011;2044;48.692;9.020;2023-08-31T02:03:34;3.53;;;3.23;;
4057;SDS011;2044;48.692;9.020;2023-08-31T02:06:01;6.90;;;2.90;;
4057;SDS011;2044;48.692;9.020;2023-08-31T02:08:29;4.50;;;3.03;;
4057;SDS011;2044;48.692;9.020;2023-08-31T02:10:55;4.13;;;3.10;;
4057;SDS011;2044;48.692;9.020;2023-08-31T02:13:22;4.27;;;3.13;;
4057;SDS011;2044;48.692;9.020;2023-08-31T02:15:52;3.30;;;2.47;;
4057;SDS011;2044;48.692;9.020;2023-08-31T02:18:19;3.83;;;2.83;;
4057;SDS011;2044;48.692;9.020;2023-08-31T02:20:45;4.70;;;3.17;;
4057;SDS011;2044;48.692;9.020;2023-08-31T02:23:12;4.50;;;3.20;;
4057;SDS011;2044;48.692;9.020;2023-08-31T02:25:39;5.90;;;3.87;;
4057;SDS011;2044;48.692;9.020;2023-08-31T02:28:06;4.00;;;2.83;;
4057;SDS011;2044;48.692;9.020;2023-08-31T02:30:32;3.20;;;2.90;;
4057;SDS011;2044;48.692;9.020;2023-08-31T02:33:01;2.87;;;2.57;;
4057;SDS011;2044;48.692;9.020;2023-08-31T02:35:27;5.50;;;3.23;;
4057;SDS011;2044;48.692;9.020;2023-08-31T02:37:54;5.47;;;2.97;;
4057;SDS011;2044;48.692;9.020;2023-08-31T02:40:21;6.37;;;3.10;;
4057;SDS011;2044;48.692;9.020;2023-08-31T02:42:50;6.00;;;3.30;;
4057;SDS011;2044;48.692;9.020;2023-08-31T02:45:16;4.00;;;2.83;;
4057;SDS011;2044;48.692;9.020;2023-08-31T02:47:43;4.53;;;3.43;;
4057;SDS011;2044;48.692;9.020;2023-08-31T02:50:11;5.60;;;3.50;;
4057;SDS011;2044;48.692;9.020;2023-08-31T02:52:39;5.00;;;3.43;;
4057;SDS011;2044;48.692;9.020;2023-08-31T02:55:07;5.37;;;3.60;;
4057;SDS011;2044;48.692;9.020;2023-08-31T02:57:34;5.80;;;3.73;;
4057;SDS011;2044;48.692;9.020;2023-08-31T03:00:00;4.87;;;3.27;;
4057;SDS011;2044;48.692;9.020;2023-08-31T03:02:27;4.67;;;3.80;;
4057;SDS011;2044;48.692;9.020;2023-08-31T03:04:57;4.83;;;3.23;;
4057;SDS011;2044;48.692;9.020;2023-08-31T03:07:27;7.20;;;3.63;;
4057;SDS011;2044;48.692;9.020;2023-08-31T03:09:54;6.50;;;3.60;;
4057;SDS011;2044;48.692;9.020;2023-08-31T03:12:21;4.50;;;3.50;;
4057;SDS011;2044;48.692;9.020;2023-08-31T03:14:48;3.97;;;3.53;;
4057;SDS011;2044;48.692;9.020;2023-08-31T03:17:15;8.60;;;4.33;;
4057;SDS011;2044;48.692;9.020;2023-08-31T03:19:42;6.50;;;4.33;;
4057;SDS011;2044;48.692;9.020;2023-08-31T03:22:09;10.50;;;4.13;;
4057;SDS011;2044;48.692;9.020;2023-08-31T03:24:37;4.00;;;3.13;;
4057;SDS011;2044;48.692;9.020;2023-08-31T03:27:03;8.87;;;5.10;;
4057;SDS011;2044;48.692;9.020;2023-08-31T03:29:30;6.33;;;4.60;;
4057;SDS011;2044;48.692;9.020;2023-08-31T03:31:57;6.60;;;3.60;;
4057;SDS011;2044;48.692;9.020;2023-08-31T03:34:28;5.40;;;4.00;;
4057;SDS011;2044;48.692;9.020;2023-08-31T03:36:55;7.50;;;4.33;;
4057;SDS011;2044;48.692;9.020;2023-08-31T03:39:21;5.33;;;3.73;;
4057;SDS011;2044;48.692;9.020;2023-08-31T03:41:49;6.37;;;4.40;;
4057;SDS011;2044;48.692;9.020;2023-08-31T03:44:16;6.60;;;4.27;;
4057;SDS011;2044;48.692;9.020;2023-08-31T03:46:43;6.20;;;3.20;;
4057;SDS011;2044;48.692;9.020;2023-08-31T03:49:10;6.30;;;3.93;;
4057;SDS011;2044;48.692;9.020;2023-08-31T03:51:36;13.80;;;5.57;;
4057;SDS011;2044;48.692;9.020;2023-08-31T03:54:03;6.00;;;3.97;;
4057;SDS011;2044;48.692;9.020;2023-08-31T03:56:31;8.97;;;4.53;;
4057;SDS011;2044;48.692;9.020;2023-08-31T03:59:01;9.53;;;3.93;;
4057;SDS011;2044;48.692;9.020;2023-08-31T04:01:29;5.70;;;4.00;;
4057;SDS011;2044;48.692;9.020;2023-08-31T04:03:56;15.13;;;4.50;;
4057;SDS011;2044;48.692;9.020;2023-08-31T04:06:23;5.80;;;4.23;;
4057;SDS011;2044;48.692;9.020;2023-08-31T04:08:50;6.97;;;4.23;;
4057;SDS011;2044;48.692;9.020;2023-08-31T04:11:17;4.63;;;3.33;;
4057;SDS011;2044;48.692;9.020;2023-08-31T04:13:44;7.47;;;4.33;;
4057;SDS011;2044;48.692;9.020;2023-08-31T04:16:12;6.83;;;4.03;;
4057;SDS011;2044;48.692;9.020;2023-08-31T04:18:38;6.50;;;4.07;;
4057;SDS011;2044;48.692;9.020;2023-08-31T04:21:05;6.67;;;4.60;;
4057;SDS011;2044;48.692;9.020;2023-08-31T04:23:32;8.70;;;4.60;;
4057;SDS011;2044;48.692;9.020;2023-08-31T04:25:59;7.90;;;4.53;;
4057;SDS011;2044;48.692;9.020;2023-08-31T04:28:26;8.80;;;4.67;;
4057;SDS011;2044;48.692;9.020;2023-08-31T04:30:53;11.10;;;6.10;;
4057;SDS011;2044;48.692;9.020;2023-08-31T04:33:22;11.40;;;4.77;;
4057;SDS011;2044;48.692;9.020;2023-08-31T04:35:48;11.93;;;5.70;;
4057;SDS011;2044;48.692;9.020;2023-08-31T04:38:15;7.83;;;4.70;;
4057;SDS011;2044;48.692;9.020;2023-08-31T04:40:42;12.80;;;4.60;;
4057;SDS011;2044;48.692;9.020;2023-08-31T04:43:09;6.17;;;4.17;;
4057;SDS011;2044;48.692;9.020;2023-08-31T04:45:36;6.90;;;4.30;;
4057;SDS011;2044;48.692;9.020;2023-08-31T04:48:03;8.97;;;5.30;;
4057;SDS011;2044;48.692;9.020;2023-08-31T04:50:32;8.10;;;5.40;;
4057;SDS011;2044;48.692;9.020;2023-08-31T04:52:58;5.97;;;4.10;;
4057;SDS011;2044;48.692;9.020;2023-08-31T04:55:25;11.43;;;5.33;;
4057;SDS011;2044;48.692;9.020;2023-08-31T04:57:52;8.40;;;5.10;;
4057;SDS011;2044;48.692;9.020;2023-08-31T05:00:19;7.97;;;4.83;;
4057;SDS011;2044;48.692;9.020;2023-08-31T05:02:46;7.80;;;5.10;;
4057;SDS011;2044;48.692;9.020;2023-08-31T05:05:13;10.40;;;5.60;;
4057;SDS011;2044;48.692;9.020;2023-08-31T05:07:41;8.90;;;4.83;;
4057;SDS011;2044;48.692;9.020;2023-08-31T05:10:08;8.63;;;5.47;;
4057;SDS011;2044;48.692;9.020;2023-08-31T05:12:36;10.63;;;5.67;;
4057;SDS011;2044;48.692;9.020;2023-08-31T05:15:03;9.60;;;4.73;;
4057;SDS011;2044;48.692;9.020;2023-08-31T05:17:30;8.53;;;5.07;;
4057;SDS011;2044;48.692;9.020;2023-08-31T05:19:57;10.17;;;5.40;;
4057;SDS011;2044;48.692;9.020;2023-08-31T05:22:24;10.97;;;6.10;;
4057;SDS011;2044;48.692;9.020;2023-08-31T05:24:52;9.37;;;5.60;;
4057;SDS011;2044;48.692;9.020;2023-08-31T05:27:19;11.00;;;6.00;;
4057;SDS011;2044;48.692;9.020;2023-08-31T05:29:46;6.87;;;4.70;;
4057;SDS011;2044;48.692;9.020;2023-08-31T05:32:12;7.37;;;4.70;;
4057;SDS011;2044;48.692;9.020;2023-08-31T05:34:39;10.97;;;5.30;;
4057;SDS011;2044;48.692;9.020;2023-08-31T05:37:06;8.37;;;5.60;;
4057;SDS011;2044;48.692;9.020;2023-08-31T05:39:34;7.20;;;5.40;;
4057;SDS011;2044;48.692;9.020;2023-08-31T05:42:02;10.23;;;5.23;;
4057;SDS011;2044;48.692;9.020;2023-08-31T05:44:29;8.27;;;4.30;;
4057;SDS011;2044;48.692;9.020;2023-08-31T05:46:55;10.50;;;5.23;;
4057;SDS011;2044;48.692;9.020;2023-08-31T05:49:23;10.37;;;5.37;;
4057;SDS011;2044;48.692;9.020;2023-08-31T05:51:49;8.90;;;5.47;;
4057;SDS011;2044;48.692;9.020;2023-08-31T05:54:16;9.80;;;5.23;;
4057;SDS011;2044;48.692;9.020;2023-08-31T05:56:43;8.90;;;5.10;;
4057;SDS011;2044;48.692;9.020;2023-08-31T05:59:11;9.87;;;5.33;;
4057;SDS011;2044;48.692;9.020;2023-08-31T06:01:38;9.00;;;5.70;;
4057;SDS011;2044;48.692;9.020;2023-08-31T06:04:05;11.70;;;6.00;;
4057;SDS011;2044;48.692;9.020;2023-08-31T06:06:32;11.17;;;6.33;;
4057;SDS011;2044;48.692;9.020;2023-08-31T06:08:59;10.20;;;5.83;;
4057;SDS011;2044;48.692;9.020;2023-08-31T06:11:26;13.10;;;7.30;;
4057;SDS011;2044;48.692;9.020;2023-08-31T06:13:52;9.43;;;6.37;;
4057;SDS011;2044;48.692;9.020;2023-08-31T06:16:20;8.30;;;5.90;;
4057;SDS011;2044;48.692;9.020;2023-08-31T06:18:47;10.70;;;6.13;;
4057;SDS011;2044;48.692;9.020;2023-08-31T06:21:14;7.97;;;5.20;;
4057;SDS011;2044;48.692;9.020;2023-08-31T06:23:41;7.67;;;5.60;;
4057;SDS011;2044;48.692;9.020;2023-08-31T06:26:08;5.90;;;4.33;;
4057;SDS011;2044;48.692;9.020;2023-08-31T06:28:35;8.60;;;4.67;;
4057;SDS011;2044;48.692;9.020;2023-08-31T06:31:02;6.47;;;4.07;;
4057;SDS011;2044;48.692;9.020;2023-08-31T06:33:30;7.07;;;4.37;;
4057;SDS011;2044;48.692;9.020;2023-08-31T06:35:57;4.30;;;3.57;;
4057;SDS011;2044;48.692;9.020;2023-08-31T06:38:23;6.17;;;4.33;;
4057;SDS011;2044;48.692;9.020;2023-08-31T06:40:50;4.97;;;2.63;;
4057;SDS011;2044;48.692;9.020;2023-08-31T06:43:19;8.93;;;3.50;;
4057;SDS011;2044;48.692;9.020;2023-08-31T06:45:46;2.77;;;2.20;;
4057;SDS011;2044;48.692;9.020;2023-08-31T06:48:13;3.73;;;2.80;;
4057;SDS011;2044;48.692;9.020;2023-08-31T06:50:41;6.43;;;2.53;;
4057;SDS011;2044;48.692;9.020;2023-08-31T06:53:08;3.60;;;2.53;;
4057;SDS011;2044;48.692;9.020;2023-08-31T06:55:35;2.53;;;2.33;;
4057;SDS011;2044;48.692;9.020;2023-08-31T06:58:01;2.73;;;2.53;;
4057;SDS011;2044;48.692;9.020;2023-08-31T07:00:29;2.90;;;2.70;;
4057;SDS011;2044;48.692;9.020;2023-08-31T07:02:57;3.63;;;3.43;;
4057;SDS011;2044;48.692;9.020;2023-08-31T07:05:25;3.93;;;3.47;;
4057;SDS011;2044;48.692;9.020;2023-08-31T07:07:54;5.10;;;4.80;;
4057;SDS011;2044;48.692;9.020;2023-08-31T07:10:21;4.33;;;4.03;;
4057;SDS011;2044;48.692;9.020;2023-08-31T07:12:48;6.97;;;4.40;;
4057;SDS011;2044;48.692;9.020;2023-08-31T07:15:15;4.63;;;4.40;;
4057;SDS011;2044;48.692;9.020;2023-08-31T07:17:42;6.50;;;5.63;;
4057;SDS011;2044;48.692;9.020;2023-08-31T07:20:09;5.60;;;4.97;;
4057;SDS011;2044;48.692;9.020;2023-08-31T07:22:37;5.07;;;4.70;;
4057;SDS011;2044;48.692;9.020;2023-08-31T07:25:07;5.27;;;4.77;;
4057;SDS011;2044;48.692;9.020;2023-08-31T07:27:34;6.47;;;4.50;;
4057;SDS011;2044;48.692;9.020;2023-08-31T07:30:01;6.03;;;5.33;;
4057;SDS011;2044;48.692;9.020;2023-08-31T07:32:28;4.83;;;4.60;;
4057;SDS011;2044;48.692;9.020;2023-08-31T07:34:55;4.60;;;4.30;;
4057;SDS011;2044;48.692;9.020;2023-08-31T07:37:22;4.70;;;4.40;;
4057;SDS011;2044;48.692;9.020;2023-08-31T07:39:49;3.93;;;3.63;;
4057;SDS011;2044;48.692;9.020;2023-08-31T07:42:17;3.70;;;3.40;;
4057;SDS011;2044;48.692;9.020;2023-08-31T07:44:44;3.90;;;3.60;;
4057;SDS011;2044;48.692;9.020;2023-08-31T07:47:10;6.07;;;4.10;;
4057;SDS011;2044;48.692;9.020;2023-08-31T07:49:37;5.00;;;4.70;;
4057;SDS011;2044;48.692;9.020;2023-08-31T07:52:04;6.07;;;4.47;;
4057;SDS011;2044;48.692;9.020;2023-08-31T07:54:31;4.53;;;4.33;;
4057;SDS011;2044;48.692;9.020;2023-08-31T07:56:58;4.57;;;4.27;;
4057;SDS011;2044;48.692;9.020;2023-08-31T07:59:27;5.23;;;4.53;;
4057;SDS011;2044;48.692;9.020;2023-08-31T08:01:53;4.13;;;3.90;;
4057;SDS011;2044;48.692;9.020;2023-08-31T08:04:20;4.70;;;4.50;;
4057;SDS011;2044;48.692;9.020;2023-08-31T08:06:49;5.70;;;5.40;;
4057;SDS011;2044;48.692;9.020;2023-08-31T08:09:16;6.73;;;6.20;;
4057;SDS011;2044;48.692;9.020;2023-08-31T08:11:43;6.43;;;5.93;;
4057;SDS011;2044;48.692;9.020;2023-08-31T08:14:10;6.80;;;6.30;;
4057;SDS011;2044;48.692;9.020;2023-08-31T08:16:38;6.83;;;6.33;;
4057;SDS011;2044;48.692;9.020;2023-08-31T08:19:05;8.13;;;7.70;;
4057;SDS011;2044;48.692;9.020;2023-08-31T08:21:33;7.83;;;7.33;;
4057;SDS011;2044;48.692;9.020;2023-08-31T08:24:00;8.70;;;8.20;;
4057;SDS011;2044;48.692;9.020;2023-08-31T08:26:26;9.20;;;8.70;;
4057;SDS011;2044;48.692;9.020;2023-08-31T08:28:53;8.80;;;8.50;;
4057;SDS011;2044;48.692;9.020;2023-08-31T08:31:20;8.90;;;8.50;;
4057;SDS011;2044;48.692;9.020;2023-08-31T08:33:48;9.00;;;8.50;;
4057;SDS011;2044;48.692;9.020;2023-08-31T08:36:15;9.23;;;8.73;;
4057;SDS011;2044;48.692;9.020;2023-08-31T08:38:41;9.30;;;8.90;;
4057;SDS011;2044;48.692;9.020;2023-08-31T08:41:08;8.47;;;8.07;;
4057;SDS011;2044;48.692;9.020;2023-08-31T08:43:36;9.63;;;9.13;;
4057;SDS011;2044;48.692;9.020;2023-08-31T08:46:07;8.87;;;8.47;;
4057;SDS011;2044;48.692;9.020;2023-08-31T08:48:35;9.30;;;8.80;;
4057;SDS011;2044;48.692;9.020;2023-08-31T08:51:04;9.07;;;8.67;;
4057;SDS011;2044;48.692;9.020;2023-08-31T08:53:31;8.93;;;8.27;;
4057;SDS011;2044;48.692;9.020;2023-08-31T08:55:58;8.87;;;8.47;;
4057;SDS011;2044;48.692;9.020;2023-08-31T08:58:24;10.00;;;9.40;;
4057;SDS011;2044;48.692;9.020;2023-08-31T09:00:51;9.33;;;8.93;;
4057;SDS011;2044;48.692;9.020;2023-08-31T09:03:20;9.97;;;9.47;;
4057;SDS011;2044;48.692;9.020;2023-08-31T09:05:47;9.37;;;8.97;;
4057;SDS011;2044;48.692;9.020;2023-08-31T09:08:15;8.07;;;7.67;;
4057;SDS011;2044;48.692;9.020;2023-08-31T09:10:42;9.30;;;8.73;;
4057;SDS011;2044;48.692;9.020;2023-08-31T09:13:10;9.50;;;9.10;;
4057;SDS011;2044;48.692;9.020;2023-08-31T09:15:39;9.50;;;9.10;;
4057;SDS011;2044;48.692;9.020;2023-08-31T09:18:07;9.47;;;8.87;;
4057;SDS011;2044;48.692;9.020;2023-08-31T09:20:44;9.13;;;8.73;;
4057;SDS011;2044;48.692;9.020;2023-08-31T09:23:12;10.13;;;9.53;;
4057;SDS011;2044;48.692;9.020;2023-08-31T09:25:43;9.80;;;9.30;;
4057;SDS011;2044;48.692;9.020;2023-08-31T09:28:11;9.90;;;9.40;;
4057;SDS011;2044;48.692;9.020;2023-08-31T09:30:39;8.87;;;8.10;;
4057;SDS011;2044;48.692;9.020;2023-08-31T09:33:06;8.83;;;8.33;;
4057;SDS011;2044;48.692;9.020;2023-08-31T09:35:34;9.70;;;9.20;;
4057;SDS011;2044;48.692;9.020;2023-08-31T09:38:05;9.43;;;9.03;;
4057;SDS011;2044;48.692;9.020;2023-08-31T09:40:34;8.33;;;8.03;;
4057;SDS011;2044;48.692;9.020;2023-08-31T09:43:02;8.70;;;8.30;;
4057;SDS011;2044;48.692;9.020;2023-08-31T09:45:29;8.47;;;8.00;;
4057;SDS011;2044;48.692;9.020;2023-08-31T09:47:58;8.70;;;8.23;;
4057;SDS011;2044;48.692;9.020;2023-08-31T09:50:26;8.73;;;8.30;;
4057;SDS011;2044;48.692;9.020;2023-08-31T09:52:54;9.67;;;8.80;;
4057;SDS011;2044;48.692;9.020;2023-08-31T09:55:22;9.80;;;9.07;;
4057;SDS011;2044;48.692;9.020;2023-08-31T09:57:51;9.90;;;9.30;;
4057;SDS011;2044;48.692;9.020;2023-08-31T10:00:22;8.23;;;7.80;;
4057;SDS011;2044;48.692;9.020;2023-08-31T10:02:49;9.07;;;8.37;;
4057;SDS011;2044;48.692;9.020;2023-08-31T10:05:16;8.73;;;8.13;;
4057;SDS011;2044;48.692;9.020;2023-08-31T10:07:44;9.57;;;9.17;;
4057;SDS011;2044;48.692;9.020;2023-08-31T10:10:11;9.93;;;9.33;;
4057;SDS011;2044;48.692;9.020;2023-08-31T10:12:38;9.13;;;8.60;;
4057;SDS011;2044;48.692;9.020;2023-08-31T10:15:08;8.80;;;8.40;;
4057;SDS011;2044;48.692;9.020;2023-08-31T10:17:37;9.00;;;8.60;;
4057;SDS011;2044;48.692;9.020;2023-08-31T10:20:05;8.40;;;7.90;;
4057;SDS011;2044;48.692;9.020;2023-08-31T10:22:34;8.13;;;7.63;;
4057;SDS011;2044;48.692;9.020;2023-08-31T10:25:01;8.50;;;8.10;;
4057;SDS011;2044;48.692;9.020;2023-08-31T10:27:35;8.63;;;8.20;;
4057;SDS011;2044;48.692;9.020;2023-08-31T10:30:24;9.30;;;8.80;;
4057;SDS011;2044;48.692;9.020;2023-08-31T10:35:49;8.63;;;8.23;;
4057;SDS011;2044;48.692;9.020;2023-08-31T10:38:22;9.03;;;8.43;;
4057;SDS011;2044;48.692;9.020;2023-08-31T10:41:00;9.07;;;8.50;;
4057;SDS011;2044;48.692;9.020;2023-08-31T10:43:42;9.30;;;8.80;;
4057;SDS011;2044;48.692;9.020;2023-08-31T10:46:26;9.03;;;8.53;;
4057;SDS011;2044;48.692;9.020;2023-08-31T10:48:55;8.47;;;8.00;;
4057;SDS011;2044;48.692;9.020;2023-08-31T10:51:24;8.90;;;8.17;;
4057;SDS011;2044;48.692;9.020;2023-08-31T10:53:52;8.33;;;8.00;;
4057;SDS011;2044;48.692;9.020;2023-08-31T10:56:30;8.23;;;7.93;;
4057;SDS011;2044;48.692;9.020;2023-08-31T10:58:58;8.40;;;7.70;;
4057;SDS011;2044;48.692;9.020;2023-08-31T11:04:19;9.07;;;8.50;;
4057;SDS011;2044;48.692;9.020;2023-08-31T11:06:46;9.03;;;8.30;;
4057;SDS011;2044;48.692;9.020;2023-08-31T11:09:17;8.93;;;8.53;;
4057;SDS011;2044;48.692;9.020;2023-08-31T11:11:45;8.13;;;7.73;;
4057;SDS011;2044;48.692;9.020;2023-08-31T11:14:12;8.83;;;8.07;;
4057;SDS011;2044;48.692;9.020;2023-08-31T11:16:39;9.30;;;8.70;;
4057;SDS011;2044;48.692;9.020;2023-08-31T11:19:06;8.87;;;8.37;;
4057;SDS011;2044;48.692;9.020;2023-08-31T11:21:34;9.50;;;8.80;;
4057;SDS011;2044;48.692;9.020;2023-08-31T11:24:02;8.80;;;8.30;;
4057;SDS011;2044;48.692;9.020;2023-08-31T11:26:31;8.97;;;8.27;;
4057;SDS011;2044;48.692;9.020;2023-08-31T11:28:58;9.00;;;8.50;;
4057;SDS011;2044;48.692;9.020;2023-08-31T11:31:25;9.57;;;9.07;;
4057;SDS011;2044;48.692;9.020;2023-08-31T11:33:53;9.00;;;8.60;;
4057;SDS011;2044;48.692;9.020;2023-08-31T11:36:21;8.80;;;8.40;;
4057;SDS011;2044;48.692;9.020;2023-08-31T11:38:49;8.63;;;8.13;;
4057;SDS011;2044;48.692;9.020;2023-08-31T11:41:16;9.33;;;8.83;;
4057;SDS011;2044;48.692;9.020;2023-08-31T11:43:43;8.20;;;7.80;;
4057;SDS011;2044;48.692;9.020;2023-08-31T11:46:10;9.43;;;8.83;;
4057;SDS011;2044;48.692;9.020;2023-08-31T11:48:37;9.17;;;8.73;;
4057;SDS011;2044;48.692;9.020;2023-08-31T11:51:05;8.37;;;8.00;;
4057;SDS011;2044;48.692;9.020;2023-08-31T11:53:32;8.73;;;8.33;;
4057;SDS011;2044;48.692;9.020;2023-08-31T11:56:02;9.10;;;8.57;;
4057;SDS011;2044;48.692;9.020;2023-08-31T11:58:29;9.40;;;8.93;;
4057;SDS011;2044;48.692;9.020;2023-08-31T12:00:57;9.07;;;8.57;;
4057;SDS011;2044;48.692;9.020;2023-08-31T12:03:24;9.20;;;8.80;;
4057;SDS011;2044;48.692;9.020;2023-08-31T12:05:52;8.90;;;8.50;;
4057;SDS011;2044;48.692;9.020;2023-08-31T12:08:25;9.10;;;8.70;;
4057;SDS011;2044;48.692;9.020;2023-08-31T12:10:53;8.53;;;8.13;;
4057;SDS011;2044;48.692;9.020;2023-08-31T12:13:25;9.27;;;8.70;;
4057;SDS011;2044;48.692;9.020;2023-08-31T12:15:52;8.33;;;8.03;;
4057;SDS011;2044;48.692;9.020;2023-08-31T12:18:19;9.53;;;9.13;;
4057;SDS011;2044;48.692;9.020;2023-08-31T12:20:46;9.33;;;8.77;;
4057;SDS011;2044;48.692;9.020;2023-08-31T12:23:16;8.60;;;8.20;;
4057;SDS011;2044;48.692;9.020;2023-08-31T12:25:47;8.80;;;8.40;;
4057;SDS011;2044;48.692;9.020;2023-08-31T12:28:16;8.90;;;8.43;;
4057;SDS011;2044;48.692;9.020;2023-08-31T12:30:46;8.63;;;8.03;;
4057;SDS011;2044;48.692;9.020;2023-08-31T12:33:14;9.20;;;8.57;;
4057;SDS011;2044;48.692;9.020;2023-08-31T12:35:41;8.90;;;8.40;;
4057;SDS011;2044;48.692;9.020;2023-08-31T12:38:08;8.93;;;8.33;;
4057;SDS011;2044;48.692;9.020;2023-08-31T12:40:35;8.93;;;8.50;;
4057;SDS011;2044;48.692;9.020;2023-08-31T12:43:03;9.20;;;8.80;;
4057;SDS011;2044;48.692;9.020;2023-08-31T12:45:31;9.20;;;8.80;;
4057;SDS011;2044;48.692;9.020;2023-08-31T12:47:59;9.77;;;9.27;;
4057;SDS011;2044;48.692;9.020;2023-08-31T12:50:26;9.50;;;9.00;;
4057;SDS011;2044;48.692;9.020;2023-08-31T12:52:53;9.53;;;9.03;;
4057;SDS011;2044;48.692;9.020;2023-08-31T12:55:19;9.20;;;8.70;;
4057;SDS011;2044;48.692;9.020;2023-08-31T12:57:46;9.87;;;9.27;;
4057;SDS011;2044;48.692;9.020;2023-08-31T13:00:14;9.23;;;8.77;;
4057;SDS011;2044;48.692;9.020;2023-08-31T13:02:42;9.50;;;8.90;;
4057;SDS011;2044;48.692;9.020;2023-08-31T13:05:11;9.27;;;8.77;;
4057;SDS011;2044;48.692;9.020;2023-08-31T13:07:38;9.17;;;8.70;;
4057;SDS011;2044;48.692;9.020;2023-08-31T13:10:05;9.87;;;9.03;;
4057;SDS011;2044;48.692;9.020;2023-08-31T13:12:33;8.87;;;8.47;;
4057;SDS011;2044;48.692;9.020;2023-08-31T13:14:59;10.10;;;9.70;;
4057;SDS011;2044;48.692;9.020;2023-08-31T13:17:27;9.07;;;8.57;;
4057;SDS011;2044;48.692;9.020;2023-08-31T13:19:54;9.07;;;8.57;;
4057;SDS011;2044;48.692;9.020;2023-08-31T13:22:23;9.03;;;8.53;;
4057;SDS011;2044;48.692;9.020;2023-08-31T13:24:50;8.73;;;8.33;;
4057;SDS011;2044;48.692;9.020;2023-08-31T13:27:17;9.23;;;8.63;;
4057;SDS011;2044;48.692;9.020;2023-08-31T13:29:44;8.53;;;8.13;;
4057;SDS011;2044;48.692;9.020;2023-08-31T13:32:11;8.80;;;8.30;;
4057;SDS011;2044;48.692;9.020;2023-08-31T13:34:38;8.20;;;7.70;;
4057;SDS011;2044;48.692;9.020;2023-08-31T13:37:05;8.57;;;8.17;;
4057;SDS011;2044;48.692;9.020;2023-08-31T13:39:34;9.13;;;8.43;;
4057;SDS011;2044;48.692;9.020;2023-08-31T13:42:01;8.80;;;8.40;;
4057;SDS011;2044;48.692;9.020;2023-08-31T13:44:29;8.70;;;8.30;;
4057;SDS011;2044;48.692;9.020;2023-08-31T13:46:55;8.63;;;8.23;;
4057;SDS011;2044;48.692;9.020;2023-08-31T13:49:22;9.63;;;9.03;;
4057;SDS011;2044;48.692;9.020;2023-08-31T13:51:49;8.73;;;8.33;;
4057;SDS011;2044;48.692;9.020;2023-08-31T13:54:16;9.40;;;8.73;;
4057;SDS011;2044;48.692;9.020;2023-08-31T13:56:44;9.10;;;8.70;;
4057;SDS011;2044;48.692;9.020;2023-08-31T13:59:11;9.27;;;8.83;;
4057;SDS011;2044;48.692;9.020;2023-08-31T14:01:38;9.57;;;9.07;;
4057;SDS011;2044;48.692;9.020;2023-08-31T14:04:05;8.80;;;8.30;;
4057;SDS011;2044;48.692;9.020;2023-08-31T14:06:32;9.00;;;8.50;;
4057;SDS011;2044;48.692;9.020;2023-08-31T14:08:58;8.40;;;7.90;;
4057;SDS011;2044;48.692;9.020;2023-08-31T14:11:26;8.87;;;8.37;;
4057;SDS011;2044;48.692;9.020;2023-08-31T14:14:00;9.00;;;8.40;;
4057;SDS011;2044;48.692;9.020;2023-08-31T14:16:30;8.43;;;8.03;;
4057;SDS011;2044;48.692;9.020;2023-08-31T14:18:57;7.50;;;7.23;;
4057;SDS011;2044;48.692;9.020;2023-08-31T14:21:24;8.80;;;8.30;;
4057;SDS011;2044;48.692;9.020;2023-08-31T14:23:50;9.30;;;8.70;;
4057;SDS011;2044;48.692;9.020;2023-08-31T14:26:20;8.30;;;7.90;;
4057;SDS011;2044;48.692;9.020;2023-08-31T14:28:47;8.27;;;7.97;;
4057;SDS011;2044;48.692;9.020;2023-08-31T14:31:15;8.90;;;8.33;;
4057;SDS011;2044;48.692;9.020;2023-08-31T14:33:42;8.30;;;7.80;;
4057;SDS011;2044;48.692;9.020;2023-08-31T14:36:09;8.60;;;8.20;;
4057;SDS011;2044;48.692;9.020;2023-08-31T14:38:36;8.30;;;7.80;;
4057;SDS011;2044;48.692;9.020;2023-08-31T14:41:03;8.33;;;7.93;;
4057;SDS011;2044;48.692;9.020;2023-08-31T14:43:31;8.30;;;7.90;;
4057;SDS011;2044;48.692;9.020;2023-08-31T14:45:58;9.27;;;8.77;;
4057;SDS011;2044;48.692;9.020;2023-08-31T14:48:27;9.70;;;9.07;;
4057;SDS011;2044;48.692;9.020;2023-08-31T14:50:53;9.23;;;8.73;;
4057;SDS011;2044;48.692;9.020;2023-08-31T14:53:23;10.07;;;9.43;;
4057;SDS011;2044;48.692;9.020;2023-08-31T14:55:50;9.00;;;8.67;;
4057;SDS011;2044;48.692;9.020;2023-08-31T14:58:17;8.33;;;7.97;;
4057;SDS011;2044;48.692;9.020;2023-08-31T15:00:44;9.70;;;9.10;;
4057;SDS011;2044;48.692;9.020;2023-08-31T15:03:11;9.97;;;9.17;;
4057;SDS011;2044;48.692;9.020;2023-08-31T15:05:39;9.50;;;9.00;;
4057;SDS011;2044;48.692;9.020;2023-08-31T15:08:07;9.77;;;9.00;;
4057;SDS011;2044;48.692;9.020;2023-08-31T15:10:33;8.53;;;7.90;;
4057;SDS011;2044;48.692;9.020;2023-08-31T15:13:00;9.33;;;8.67;;
4057;SDS011;2044;48.692;9.020;2023-08-31T15:15:27;8.73;;;8.20;;
4057;SDS011;2044;48.692;9.020;2023-08-31T15:17:54;9.20;;;8.70;;
4057;SDS011;2044;48.692;9.020;2023-08-31T15:20:21;8.67;;;7.90;;
4057;SDS011;2044;48.692;9.020;2023-08-31T15:22:51;8.53;;;8.13;;
4057;SDS011;2044;48.692;9.020;2023-08-31T15:25:17;10.07;;;9.53;;